Carmopolis de Minas, Brazil
Current Conditions -  °F | °C
As of 7:21 PM on Friday 28 Nov 2014 (Local Time) from SBPR Reporting Station
Moderate Rain Moderate Rain  
Wind Chill: 68°   Ceiling: 500
Heat Index: 68°   Visibility: 1.2mi
Dew Point: 66°   Wind: 8mph
Humidity: 94%   Direction: 320°NW
Pressure: 30.09"   Gusts: NA
Location:  20.54°S, 44.63°W
Report Text: SBPR 282121Z 32007KT 2000 RA BKN005 BKN010 OVC080 20/19 Q1019
Loading
Personal Weather Stations






























Interactive Weather Map New forecast layout! Learn more

10-Day Weather Forecast

Advertisements
Track Severe Weather on mobile